aviador You're here:

CYOY Decoded Metar

VALCARTIER AIRPO in QC, CANADA
Report Time2017-11-22 05:00:00
UTC Time2017-11-22 05:24:57
Flight Rules vfr VFR
WindCalm
Visibility9999 m
Phenomena:N/A
Clouds:Broken 054 Hf
Overcast 073 Hf
Overcast 084 Hf
Expected CloudBase > 400 ft AGL from Temp-Dew spread
Ceiling5,400 ft
Temp-3°C (ISA -17)
Dew Point-4°C (93% RH)
AAT-5.5°C
QNH1010 hPa
Density Alt-1,358 ft
Elevation551 ft
Report Wrong Elevation
Raw Report
CYOY 220500Z AUTO 00000KT 9SM BKN054 OVC073 OVC084 M03/M04 A2982
RMK SLP110=

Extra information for CYOY:More info

Metar Taf Metar & Taf Last 4 Metars F.Rules Stats Wind Profile Meteogram Temp Stats Airport Information Weather charts Add Link Nearby VenuesMetar ALERT Operation Metar Decoded Social comments